IFR Flight & SIM Center™

402 Wright Bros. Dr. #202 Georgetown, Texas 78628

Select Page

The Aviator Gallery

IFR Flight & SIM Center™
Aviator Gallery - IFR Flight & SIM Center™

The Aviator Gallery

Preserving and celebrating history through aviation art.

Aviator Gallery - IFR Flight & SIM Center™IFR Flight & SIM Center™ has the privilege of sponsoring the Aviator Gallery. The mission of the Aviator Gallery is to participate in the celebration and preservation of history through aviation art presented by renown artists. Above is a work by John D. Shaw, “Iwo Jima – A Hard Won Battle.” This is just a sample of the wonderful art you can enjoy at the Aviator Gallery

Some of the artists you will find are: Simon Atack, Heinz Krebs, William S. Phillips, John D. Shaw, Richard Taylor, Robert Taylor, Nicholas Trudgian, and Anthony Saunders.

www.AviatorGallery.com

 
KGTU METAR
Georgetown, TX

KGTU 220256Z 11007KT 10SM CLR 31/21 A3008 RMK AO2 SLP176 T03060206 53015

 

 

 

Look No Further. Get Started Today!

Subscribe To Our Newsletter

Join our mailing list to receive the latest news and updates from our team at IFR Flight & SIM Center™.

You can unsubscribe at any time.

You have Successfully Subscribed!